createdAt,value
2018-01-24T00:00:34.455Z,56.50
2018-01-24T00:03:02.232Z,65.07
2018-01-24T00:05:30.056Z,61.50
2018-01-24T00:07:57.825Z,59.28
2018-01-24T00:10:25.595Z,57.75
2018-01-24T00:12:53.413Z,62.62
2018-01-24T00:15:21.971Z,58.63
2018-01-24T00:17:49.734Z,55.83
2018-01-24T00:20:17.610Z,60.78
2018-01-24T00:22:46.139Z,59.58
2018-01-24T00:25:13.904Z,57.55
2018-01-24T00:27:41.720Z,56.33
2018-01-24T00:30:10.265Z,58.97
2018-01-24T00:32:38.024Z,56.88
2018-01-24T00:35:05.839Z,53.97
2018-01-24T00:37:33.608Z,54.97
2018-01-24T00:40:01.367Z,55.45
2018-01-24T00:42:29.196Z,52.62
2018-01-24T00:44:56.959Z,52.03
2018-01-24T00:47:24.775Z,52.38
2018-01-24T00:49:52.590Z,50.55
2018-01-24T00:52:21.150Z,45.97
2018-01-24T00:54:48.918Z,46.97
2018-01-24T00:57:16.738Z,48.25
2018-01-24T00:59:44.496Z,49.15
2018-01-24T01:02:12.261Z,46.00
2018-01-24T01:04:40.080Z,44.08
2018-01-24T01:07:08.629Z,44.53
2018-01-24T01:09:36.409Z,45.35
2018-01-24T01:12:04.234Z,45.28
2018-01-24T01:14:31.997Z,39.28
2018-01-24T01:16:59.765Z,37.25
2018-01-24T01:19:28.356Z,36.30
2018-01-24T01:21:56.118Z,39.40
2018-01-24T01:24:23.875Z,34.13
2018-01-24T01:26:51.712Z,29.08
2018-01-24T01:29:19.479Z,33.50
2018-01-24T01:31:47.244Z,33.40
2018-01-24T01:34:15.066Z,30.65
2018-01-24T01:36:43.604Z,30.85
2018-01-24T01:39:11.373Z,28.48
2018-01-24T01:41:39.966Z,31.17
2018-01-24T01:44:07.738Z,31.77
2018-01-24T01:46:35.517Z,31.00
2018-01-24T01:49:04.102Z,29.63
2018-01-24T01:51:32.649Z,30.75
2018-01-24T01:54:00.424Z,31.58
2018-01-24T01:56:28.267Z,28.23
2018-01-24T01:58:56.032Z,32.45
2018-01-24T02:01:23.825Z,31.40
2018-01-24T02:03:52.409Z,30.60
2018-01-24T02:06:20.937Z,32.60
2018-01-24T02:08:48.692Z,33.80
2018-01-24T02:11:16.507Z,32.33
2018-01-24T02:13:45.042Z,30.05
2018-01-24T02:16:13.578Z,29.92
2018-01-24T02:18:42.159Z,29.02
2018-01-24T02:21:10.685Z,29.10
2018-01-24T02:23:38.458Z,29.67
2018-01-24T02:26:06.293Z,29.15
2018-01-24T02:28:34.069Z,29.50
2018-01-24T02:31:01.858Z,30.33
2018-01-24T02:33:29.681Z,29.58
2018-01-24T02:35:57.446Z,28.80
2018-01-24T02:51:52.796Z,26.92
2018-01-24T02:54:20.572Z,28.75
2018-01-24T02:56:48.328Z,26.48
2018-01-24T02:59:16.163Z,25.75
2018-01-24T03:01:44.714Z,27.70
2018-01-24T03:04:12.482Z,29.15
2018-01-24T03:06:40.309Z,39.78
2018-01-24T03:09:08.067Z,33.00
2018-01-24T03:11:35.823Z,32.25
2018-01-24T03:14:03.665Z,33.05
2018-01-24T03:16:32.197Z,31.35
2018-01-24T03:19:00.778Z,28.00
2018-01-24T03:21:28.607Z,34.53
2018-01-24T03:23:56.375Z,29.45
2018-01-24T03:26:24.137Z,31.75
2018-01-24T03:28:51.957Z,30.98
2018-01-24T03:31:19.725Z,31.33
2018-01-24T03:33:47.486Z,29.30
2018-01-24T03:36:15.322Z,27.10
2018-01-24T03:38:43.847Z,21.17
2018-01-24T03:41:12.375Z,24.85
2018-01-24T03:43:40.214Z,23.65
2018-01-24T03:46:07.989Z,21.40
2018-01-24T03:48:35.769Z,23.27
2018-01-24T03:51:03.592Z,28.77
2018-01-24T03:53:31.362Z,27.50
2018-01-24T03:55:59.127Z,45.33
2018-01-24T03:58:26.957Z,27.20
2018-01-24T04:00:55.485Z,25.23
2018-01-24T04:03:23.251Z,23.10
2018-01-24T04:05:51.826Z,23.42
2018-01-24T04:08:19.605Z,22.27
2018-01-24T04:10:47.364Z,21.40
2018-01-24T04:13:15.179Z,21.85
2018-01-24T04:15:43.713Z,20.50
2018-01-24T04:18:11.479Z,19.02
2018-01-24T04:20:39.313Z,20.65
2018-01-24T04:23:07.076Z,19.65
2018-01-24T04:25:34.843Z,18.08
2018-01-24T04:28:02.660Z,18.60
2018-01-24T04:30:31.194Z,20.27
2018-01-24T04:32:58.977Z,38.45
2018-01-24T04:35:26.815Z,23.92
2018-01-24T04:37:54.585Z,19.92
2018-01-24T04:40:22.356Z,22.08
2018-01-24T04:42:50.181Z,19.50
2018-01-24T04:45:17.974Z,19.05
2018-01-24T04:47:45.756Z,20.83
2018-01-24T04:50:13.601Z,20.52
2018-01-24T04:52:41.364Z,17.15
2018-01-24T04:55:09.125Z,17.77
2018-01-24T04:57:36.959Z,18.83
2018-01-24T05:00:04.742Z,17.35
2018-01-24T05:02:32.523Z,18.50
2018-01-24T05:05:00.374Z,19.62
2018-01-24T05:07:28.159Z,19.20
2018-01-24T05:09:55.958Z,16.42
2018-01-24T05:12:23.800Z,15.52
2018-01-24T05:14:52.345Z,14.40
2018-01-24T05:17:20.131Z,15.70
2018-01-24T05:19:47.963Z,14.95
2018-01-24T05:22:15.740Z,14.80
2018-01-24T05:24:43.509Z,14.98
2018-01-24T05:27:11.331Z,16.27
2018-01-24T05:29:39.118Z,15.02
2018-01-24T05:32:06.884Z,16.10
2018-01-24T05:34:34.734Z,16.55
2018-01-24T05:37:02.526Z,14.85
2018-01-24T05:39:30.299Z,12.90
2018-01-24T05:41:58.880Z,14.57
2018-01-24T05:44:27.421Z,12.65
2018-01-24T05:46:55.183Z,12.45
2018-01-24T05:49:23.285Z,10.65
2018-01-24T05:51:51.057Z,11.12
2018-01-24T05:54:19.595Z,12.15
2018-01-24T05:56:47.411Z,10.88
2018-01-24T05:59:15.953Z,9.27
2018-01-24T06:01:43.742Z,12.18
2018-01-24T06:04:12.336Z,10.88
2018-01-24T06:06:40.125Z,10.63
2018-01-24T06:09:07.896Z,10.38
2018-01-24T06:11:35.713Z,11.02
2018-01-24T06:14:04.257Z,10.55
2018-01-24T06:16:32.016Z,10.48
2018-01-24T06:18:59.840Z,10.30
2018-01-24T06:21:27.612Z,11.07
2018-01-24T06:23:55.377Z,9.77
2018-01-24T06:26:23.188Z,8.32
2018-01-24T06:28:50.947Z,9.20
2018-01-24T06:31:18.712Z,10.52
2018-01-24T06:33:46.544Z,9.63
2018-01-24T06:36:14.316Z,9.30
2018-01-24T06:38:42.084Z,8.13
2018-01-24T06:41:09.932Z,11.30
2018-01-24T06:43:37.695Z,9.65
2018-01-24T06:46:05.467Z,9.10
2018-01-24T06:48:33.292Z,9.63
2018-01-24T06:51:01.061Z,10.35
2018-01-24T06:53:28.840Z,11.95
2018-01-24T06:55:56.667Z,11.40
2018-01-24T06:58:24.439Z,10.40
2018-01-24T07:00:52.258Z,12.05
2018-01-24T07:03:20.097Z,11.20
2018-01-24T07:05:47.878Z,11.07
2018-01-24T07:08:15.660Z,14.68
2018-01-24T07:10:44.248Z,12.10
2018-01-24T07:13:24.741Z,13.45
2018-01-24T07:15:52.576Z,11.12
2018-01-24T07:18:21.182Z,11.35
2018-01-24T07:20:48.953Z,12.23
2018-01-24T07:23:16.773Z,9.88
2018-01-24T07:25:45.297Z,9.98
2018-01-24T07:28:13.092Z,11.00
2018-01-24T07:30:40.917Z,11.85
2018-01-24T07:33:08.694Z,9.88
2018-01-24T07:35:36.478Z,9.35
2018-01-24T07:38:04.308Z,9.52
2018-01-24T07:40:32.081Z,8.40
2018-01-24T07:42:59.853Z,8.70
2018-01-24T07:45:27.685Z,8.50
2018-01-24T07:47:55.459Z,8.85
2018-01-24T07:50:23.230Z,7.53
2018-01-24T07:52:51.064Z,7.50
2018-01-24T07:55:18.833Z,7.87
2018-01-24T07:57:46.597Z,8.10
2018-01-24T08:00:14.416Z,8.43
2018-01-24T08:02:42.175Z,6.32
2018-01-24T08:05:09.948Z,7.10
2018-01-24T08:07:38.535Z,7.07
2018-01-24T08:10:07.063Z,6.65
2018-01-24T08:12:34.828Z,7.80
2018-01-24T08:15:02.647Z,8.02
2018-01-24T08:17:31.184Z,7.05
2018-01-24T08:19:59.712Z,5.65
2018-01-24T08:22:27.549Z,6.90
2018-01-24T08:24:55.313Z,8.05
2018-01-24T08:27:23.075Z,6.20
2018-01-24T08:29:51.668Z,6.47
2018-01-24T08:32:19.449Z,7.03
2018-01-24T08:34:47.234Z,6.22
2018-01-24T08:37:15.061Z,6.72
2018-01-24T08:39:43.595Z,6.12
2018-01-24T08:42:11.371Z,8.27
2018-01-24T08:44:39.204Z,5.80
2018-01-24T08:47:06.960Z,7.37
2018-01-24T08:49:34.730Z,7.10
2018-01-24T08:52:02.545Z,7.65
2018-01-24T08:54:31.079Z,7.37
2018-01-24T08:56:58.843Z,7.37
2018-01-24T08:59:26.673Z,6.80
2018-01-24T09:12:05.874Z,9.20
2018-01-24T09:14:33.760Z,8.30
2018-01-24T09:17:01.527Z,9.23
2018-01-24T09:19:29.288Z,10.00
2018-01-24T09:21:57.143Z,10.32
2018-01-24T09:24:25.672Z,9.20
2018-01-24T09:26:54.217Z,23.40
2018-01-24T09:29:22.046Z,40.10
2018-01-24T09:31:49.822Z,45.35
2018-01-24T09:34:17.636Z,23.62
2018-01-24T09:36:46.232Z,33.13
2018-01-24T09:39:14.011Z,14.93
2018-01-24T09:41:41.787Z,9.50
2018-01-24T09:44:09.607Z,9.02
2018-01-24T09:46:38.140Z,8.40
2018-01-24T09:49:05.913Z,10.80
2018-01-24T09:51:33.743Z,10.95
2018-01-24T09:54:01.521Z,10.73
2018-01-24T09:56:29.305Z,10.32
2018-01-24T09:58:57.189Z,12.50
2018-01-24T10:01:25.734Z,11.93
2018-01-24T10:03:53.501Z,10.93
2018-01-24T10:06:21.336Z,9.68
2018-01-24T10:08:49.099Z,13.20
2018-01-24T10:11:16.859Z,11.30
2018-01-24T10:13:44.693Z,13.00
2018-01-24T10:16:13.239Z,10.48
2018-01-24T10:18:41.030Z,10.52
2018-01-24T10:21:09.623Z,10.90
2018-01-24T10:23:37.404Z,10.57
2018-01-24T10:26:05.189Z,14.23
2018-01-24T10:28:33.016Z,11.30
2018-01-24T10:31:00.794Z,10.43
2018-01-24T10:33:28.586Z,12.55
2018-01-24T10:35:56.425Z,10.82
2018-01-24T10:38:24.191Z,10.32
2018-01-24T10:40:51.966Z,10.80
2018-01-24T10:43:19.788Z,9.50
2018-01-24T10:45:47.570Z,20.75
2018-01-24T10:48:15.342Z,19.95
2018-01-24T10:50:43.172Z,18.52
2018-01-24T10:53:10.948Z,9.32
2018-01-24T10:55:38.712Z,9.15
2018-01-24T10:58:06.524Z,8.43
2018-01-24T11:00:34.283Z,9.40
2018-01-24T11:03:02.055Z,9.90
2018-01-24T11:05:29.889Z,9.05
2018-01-24T11:07:57.668Z,11.02
2018-01-24T11:10:25.448Z,10.57
2018-01-24T11:12:53.269Z,9.73
2018-01-24T11:15:21.046Z,9.77
2018-01-24T11:17:48.834Z,8.93
2018-01-24T11:20:17.518Z,13.05
2018-01-24T11:22:46.070Z,9.40
2018-01-24T11:25:13.840Z,9.10
2018-01-24T11:27:41.660Z,9.30
2018-01-24T11:30:09.436Z,9.00
2018-01-24T11:32:37.200Z,10.23
2018-01-24T11:35:05.024Z,9.35
2018-01-24T11:37:33.565Z,8.85
2018-01-24T11:40:01.354Z,10.40
2018-01-24T11:42:29.956Z,8.98
2018-01-24T11:44:57.738Z,8.32
2018-01-24T11:47:25.508Z,11.00
2018-01-24T11:49:53.337Z,9.52
2018-01-24T11:52:21.876Z,8.77
2018-01-24T11:54:49.640Z,10.10
2018-01-24T11:57:17.463Z,11.85
2018-01-24T11:59:45.227Z,11.20
2018-01-24T12:02:12.996Z,11.90
2018-01-24T12:04:40.813Z,13.73
2018-01-24T12:07:08.595Z,11.25
2018-01-24T12:09:36.363Z,9.82
2018-01-24T12:12:04.191Z,10.90
2018-01-24T12:14:31.976Z,11.55
2018-01-24T12:16:59.775Z,10.73
2018-01-24T12:19:27.611Z,11.02
2018-01-24T12:21:55.395Z,11.35
2018-01-24T12:24:23.173Z,12.63
2018-01-24T12:26:50.999Z,8.93
2018-01-24T12:29:18.806Z,10.30
2018-01-24T12:31:47.358Z,9.45
2018-01-24T12:34:15.188Z,11.40
2018-01-24T12:36:43.709Z,9.70
2018-01-24T12:39:11.508Z,11.98
2018-01-24T12:41:39.334Z,7.68
2018-01-24T12:44:07.132Z,9.35
2018-01-24T12:46:34.909Z,7.85
2018-01-24T12:49:02.732Z,8.73
2018-01-24T12:51:30.513Z,7.95
2018-01-24T12:53:58.290Z,10.63
2018-01-24T12:56:26.133Z,8.15
2018-01-24T12:58:53.921Z,10.25
2018-01-24T13:01:22.457Z,7.45
2018-01-24T13:03:50.296Z,8.68
2018-01-24T13:06:18.071Z,6.28
2018-01-24T13:08:45.875Z,6.87
2018-01-24T13:11:13.716Z,7.40
2018-01-24T13:13:41.506Z,5.90
2018-01-24T13:16:09.278Z,7.35
2018-01-24T13:18:37.118Z,7.75
2018-01-24T13:21:04.893Z,5.45
2018-01-24T13:23:32.663Z,6.50
2018-01-24T13:26:01.267Z,6.72
2018-01-24T13:28:29.782Z,6.37
2018-01-24T13:30:57.553Z,5.32
2018-01-24T13:33:25.367Z,5.00
2018-01-24T13:35:53.932Z,5.55
2018-01-24T13:38:21.704Z,5.15
2018-01-24T13:40:50.281Z,5.75
2018-01-24T13:43:18.814Z,5.32
2018-01-24T13:45:46.589Z,6.32
2018-01-24T13:48:14.408Z,6.35
2018-01-24T13:50:42.172Z,5.55
2018-01-24T13:53:09.939Z,5.60
2018-01-24T13:55:37.756Z,5.25
2018-01-24T13:58:05.518Z,5.50
2018-01-24T14:00:33.287Z,6.00
2018-01-24T14:03:01.107Z,5.60
2018-01-24T14:05:28.864Z,5.87
2018-01-24T14:07:56.622Z,6.57
2018-01-24T14:10:24.437Z,6.50
2018-01-24T14:12:52.983Z,6.40
2018-01-24T14:15:20.758Z,6.30
2018-01-24T14:17:48.591Z,6.55
2018-01-24T14:20:16.346Z,7.65
2018-01-24T14:22:44.111Z,7.75
2018-01-24T14:25:11.930Z,6.65
2018-01-24T14:27:40.474Z,6.32
2018-01-24T14:30:08.256Z,6.40
2018-01-24T14:32:36.075Z,7.37
2018-01-24T14:35:03.853Z,7.30
2018-01-24T14:37:31.635Z,6.87
2018-01-24T14:39:59.460Z,7.03
2018-01-24T14:42:27.231Z,7.62
2018-01-24T14:44:54.988Z,6.80
2018-01-24T14:47:22.802Z,7.43
2018-01-24T14:49:50.575Z,9.25
2018-01-24T14:52:18.336Z,8.35
2018-01-24T14:54:46.945Z,9.98
2018-01-24T14:57:14.714Z,10.40
2018-01-24T14:59:42.503Z,10.65
2018-01-24T15:02:10.321Z,10.65
2018-01-24T15:04:38.098Z,9.85
2018-01-24T15:07:05.872Z,12.02
2018-01-24T15:09:33.703Z,12.18
2018-01-24T15:12:02.243Z,10.93
2018-01-24T15:14:30.006Z,11.73
2018-01-24T15:16:57.849Z,12.37
2018-01-24T15:19:25.632Z,12.85
2018-01-24T15:21:53.431Z,12.73
2018-01-24T15:24:22.024Z,13.65
2018-01-24T15:26:49.790Z,12.25
2018-01-24T15:29:17.581Z,13.10
2018-01-24T15:31:45.396Z,15.77
2018-01-24T15:34:13.970Z,16.67
2018-01-24T15:36:42.527Z,17.87
2018-01-24T15:39:10.395Z,20.62
2018-01-24T15:41:38.172Z,22.50
2018-01-24T15:44:05.946Z,23.52
2018-01-24T15:46:34.552Z,19.10
2018-01-24T15:49:02.345Z,16.95
2018-01-24T15:51:30.114Z,16.70
2018-01-24T15:53:57.949Z,16.50
2018-01-24T15:56:25.717Z,15.63
2018-01-24T15:58:53.485Z,14.00
2018-01-24T16:01:21.321Z,13.90
2018-01-24T16:03:49.098Z,15.90
2018-01-24T16:06:16.875Z,12.88
2018-01-24T16:08:44.709Z,16.10
2018-01-24T16:11:12.471Z,20.40
2018-01-24T16:13:40.247Z,19.40
2018-01-24T16:16:08.064Z,19.10
2018-01-24T16:18:35.827Z,20.25
2018-01-24T16:21:03.598Z,18.00
2018-01-24T16:23:32.197Z,16.40
2018-01-24T16:25:59.972Z,19.75
2018-01-24T16:28:27.738Z,20.95
2018-01-24T16:30:56.393Z,19.80
2018-01-24T16:33:24.218Z,20.52
2018-01-24T16:35:52.004Z,22.13
2018-01-24T16:38:20.587Z,22.58
2018-01-24T16:40:49.133Z,25.52
2018-01-24T16:43:16.901Z,25.85
2018-01-24T16:45:44.745Z,28.50
2018-01-24T16:48:12.506Z,28.67
2018-01-24T16:50:40.275Z,27.85
2018-01-24T16:53:08.092Z,20.42
2018-01-24T16:55:35.860Z,23.55
2018-01-24T16:58:03.622Z,24.48
2018-01-24T17:00:31.478Z,26.70
2018-01-24T17:03:00.030Z,26.58
2018-01-24T17:05:27.814Z,17.98
2018-01-24T17:07:56.399Z,24.83
2018-01-24T17:10:24.943Z,21.80
2018-01-24T17:12:53.482Z,18.40
2018-01-24T17:15:21.310Z,20.83
2018-01-24T17:17:49.839Z,17.62
2018-01-24T17:20:17.621Z,18.62
2018-01-24T17:22:45.466Z,19.50
2018-01-24T17:25:13.240Z,18.52
2018-01-24T17:27:41.008Z,16.75
2018-01-24T17:30:08.824Z,17.30
2018-01-24T17:32:36.595Z,14.98
2018-01-24T17:35:04.361Z,15.70
2018-01-24T17:37:32.187Z,17.77
2018-01-24T17:40:00.727Z,18.25
2018-01-24T17:42:29.253Z,16.33
2018-01-24T17:44:57.842Z,16.67
2018-01-24T17:47:26.400Z,17.65
2018-01-24T17:49:54.161Z,16.37
2018-01-24T17:52:21.988Z,18.10
2018-01-24T17:54:49.760Z,16.55
2018-01-24T17:57:17.519Z,16.05
2018-01-24T17:59:45.342Z,19.20
2018-01-24T18:02:13.102Z,22.58
2018-01-24T18:04:40.862Z,22.87
2018-01-24T18:07:08.684Z,22.65
2018-01-24T18:09:36.448Z,23.60
2018-01-24T18:12:04.222Z,22.58
2018-01-24T18:14:32.035Z,18.75
2018-01-24T18:16:59.813Z,20.10
2018-01-24T18:19:27.581Z,18.58
2018-01-24T18:21:55.400Z,17.45
2018-01-24T18:24:23.928Z,16.23
2018-01-24T18:26:51.696Z,18.83
2018-01-24T18:29:19.533Z,18.42
2018-01-24T18:31:47.296Z,20.67
2018-01-24T18:34:15.059Z,18.45
2018-01-24T18:36:42.892Z,19.45
2018-01-24T18:39:11.436Z,27.42
2018-01-24T18:41:39.208Z,20.37
2018-01-24T18:44:07.047Z,19.50
2018-01-24T18:46:34.822Z,19.33
2018-01-24T18:49:02.592Z,22.45
2018-01-24T18:51:30.434Z,20.27
2018-01-24T18:53:58.190Z,17.85
2018-01-24T18:56:25.960Z,22.37
2018-01-24T18:58:53.776Z,16.83
2018-01-24T19:01:21.549Z,21.12
2018-01-24T19:03:49.352Z,21.23
2018-01-24T19:06:17.172Z,22.25
2018-01-24T19:08:44.932Z,18.87
2018-01-24T19:11:12.694Z,19.20
2018-01-24T19:13:40.509Z,21.23
2018-01-24T19:16:08.280Z,18.77
2018-01-24T19:18:36.047Z,18.85
2018-01-24T19:21:04.653Z,18.90
2018-01-24T19:23:32.430Z,19.70
2018-01-24T19:26:00.198Z,20.40
2018-01-24T19:28:28.034Z,21.70
2018-01-24T19:30:56.571Z,20.00
2018-01-24T19:33:24.344Z,19.50
2018-01-24T19:35:52.195Z,19.45
2018-01-24T19:38:19.988Z,19.08
2018-01-24T19:40:48.524Z,20.08
2018-01-24T19:43:16.360Z,19.75
2018-01-24T19:45:44.137Z,19.98
2018-01-24T19:48:11.916Z,18.40
2018-01-24T19:50:39.762Z,17.87
2018-01-24T19:53:07.546Z,17.23
2018-01-24T19:55:35.308Z,17.77
2018-01-24T19:58:03.150Z,16.95
2018-01-24T20:00:30.920Z,16.17
2018-01-24T20:02:59.470Z,16.40
2018-01-24T20:05:27.301Z,17.40
2018-01-24T20:07:55.090Z,16.05
2018-01-24T20:10:23.623Z,15.45
2018-01-24T20:12:51.448Z,16.17
2018-01-24T20:15:19.205Z,14.43
2018-01-24T20:17:47.024Z,16.83
2018-01-24T20:20:14.851Z,13.45
2018-01-24T20:22:42.620Z,15.30
2018-01-24T20:25:11.161Z,14.75
2018-01-24T20:27:39.762Z,16.95
2018-01-24T20:30:07.561Z,15.15
2018-01-24T20:32:35.326Z,17.27
2018-01-24T20:35:03.171Z,15.55
2018-01-24T20:37:30.936Z,17.75
2018-01-24T20:39:58.717Z,15.00
2018-01-24T20:42:26.539Z,15.20
2018-01-24T20:44:54.314Z,15.80
2018-01-24T20:47:22.074Z,14.98
2018-01-24T20:49:49.901Z,19.50
2018-01-24T20:52:18.439Z,16.65
2018-01-24T20:54:46.209Z,15.93
2018-01-24T20:57:14.032Z,17.67
2018-01-24T20:59:41.801Z,16.30
2018-01-24T21:02:09.569Z,16.80
2018-01-24T21:04:37.395Z,15.90
2018-01-24T21:07:05.932Z,13.88
2018-01-24T21:09:33.703Z,16.00
2018-01-24T21:12:01.524Z,15.75
2018-01-24T21:14:29.292Z,16.85
2018-01-24T21:16:57.059Z,15.35
2018-01-24T21:19:24.885Z,15.18
2018-01-24T21:21:52.676Z,14.23
2018-01-24T21:24:20.438Z,15.23
2018-01-24T21:26:48.255Z,15.68
2018-01-24T21:29:28.695Z,16.08
2018-01-24T21:32:08.397Z,17.30
2018-01-24T21:34:47.903Z,17.27
2018-01-24T21:37:16.503Z,14.95
2018-01-24T21:39:44.263Z,17.33
2018-01-24T21:42:12.035Z,17.20
2018-01-24T21:44:39.855Z,17.02
2018-01-24T21:47:07.635Z,17.85
2018-01-24T21:49:36.160Z,16.90
2018-01-24T21:52:03.980Z,17.08
2018-01-24T21:54:32.518Z,16.48
2018-01-24T21:57:00.281Z,17.85
2018-01-24T21:59:28.091Z,17.70
2018-01-24T22:01:55.860Z,17.15
2018-01-24T22:04:23.628Z,17.33
2018-01-24T22:06:51.449Z,18.60
2018-01-24T22:09:19.216Z,17.20
2018-01-24T22:11:46.982Z,19.87
2018-01-24T22:14:15.841Z,20.67
2018-01-24T22:16:43.670Z,19.70
2018-01-24T22:19:11.432Z,19.42
2018-01-24T22:21:39.255Z,17.25
2018-01-24T22:24:07.788Z,18.75
2018-01-24T22:26:35.582Z,18.08
2018-01-24T22:29:03.396Z,19.98
2018-01-24T22:31:31.172Z,17.50
2018-01-24T22:33:58.928Z,19.20
2018-01-24T22:36:26.756Z,16.40
2018-01-24T22:38:55.297Z,18.05
2018-01-24T22:41:23.079Z,14.23
2018-01-24T22:43:50.905Z,17.30
2018-01-24T22:46:18.680Z,20.15
2018-01-24T22:48:46.462Z,18.02
2018-01-24T22:51:14.294Z,19.62
2018-01-24T22:53:42.057Z,17.10
2018-01-24T22:56:09.817Z,17.23
2018-01-24T22:58:37.631Z,16.37
2018-01-24T23:01:06.171Z,16.23
2018-01-24T23:03:33.943Z,15.93
2018-01-24T23:06:01.796Z,16.55
2018-01-24T23:08:29.570Z,17.05
2018-01-24T23:10:57.331Z,16.67
2018-01-24T23:13:25.150Z,16.87
2018-01-24T23:15:52.915Z,17.35
2018-01-24T23:18:20.685Z,15.70
2018-01-24T23:20:48.550Z,16.27
2018-01-24T23:23:16.333Z,17.37
2018-01-24T23:25:44.105Z,16.37
2018-01-24T23:28:11.927Z,17.42
2018-01-24T23:30:39.693Z,15.15
2018-01-24T23:33:07.474Z,18.35
2018-01-24T23:35:35.284Z,19.02
2018-01-24T23:38:03.834Z,17.37
2018-01-24T23:40:31.616Z,17.23
2018-01-24T23:43:00.209Z,17.48
2018-01-24T23:45:28.730Z,15.50
2018-01-24T23:47:56.500Z,18.95
2018-01-24T23:50:24.320Z,17.20
2018-01-24T23:52:52.863Z,18.48
2018-01-24T23:55:20.628Z,15.80
2018-01-24T23:57:48.448Z,17.83
